Time;durP1;ratioP1;P1;durP2;ratioP2;P2;SDS_P1;SDS_P2;PMS_P1;PMS_P2;Temp;Humidity;BMP_temperature;BMP_pressure;BME280_temperature;BME280_humidity;BME280_pressure;Samples;Min_cycle;Max_cycle;Signal;HPM_P1;HPM_P2
2023/09/23 00:01:58;;;;;;;;;;;;;;;28.51;40.78;93866.88;5010920;28;9099;-57
2023/09/23 00:04:42;;;;;;;;;;;;;;;28.50;41.27;93866.13;5011912;28;9360;-56
2023/09/23 00:07:12;;;;;;;;;;;;;;;28.49;41.09;93878.50;5005785;28;9136;-57
2023/09/23 00:09:59;;;;;;;;;;;;;;;28.50;40.89;93885.50;5014001;28;7001;-56
2023/09/23 00:12:30;;;;;;;;;;;;;;;28.49;40.75;93886.06;4999202;28;9557;-57
2023/09/23 00:15:34;;;;;;;;;;;;;;;28.51;41.14;93892.53;5013466;28;9966;-56
2023/09/23 00:18:17;;;;;;;;;;;;;;;28.51;40.43;93900.84;4914341;29;7245;-57
2023/09/23 00:20:48;;;;;;;;;;;;;;;28.50;40.75;93913.16;4931748;28;7007;-57
2023/09/23 00:23:16;;;;;;;;;;;;;;;28.46;40.74;93901.72;4925769;28;7001;-57
2023/09/23 00:25:52;;;;;;;;;;;;;;;28.46;41.04;93900.97;4918725;29;7288;-56
2023/09/23 00:28:31;;;;;;;;;;;;;;;28.47;40.91;93905.22;4942749;28;8639;-57
2023/09/23 00:31:14;;;;;;;;;;;;;;;28.45;41.21;93908.50;4927170;28;9648;-57
2023/09/23 00:33:42;;;;;;;;;;;;;;;28.46;40.51;93918.31;4932434;28;7469;-56
2023/09/23 00:36:11;;;;;;;;;;;;;;;28.45;40.79;93918.84;4940433;28;7292;-57
2023/09/23 00:38:39;;;;;;;;;;;;;;;28.43;40.54;93916.63;4928755;28;7228;-57
2023/09/23 00:41:08;;;;;;;;;;;;;;;28.43;40.82;93913.84;4943983;28;8720;-57
2023/09/23 00:43:35;;;;;;;;;;;;;;;28.44;40.71;93926.41;4927715;28;8777;-57
2023/09/23 00:46:06;;;;;;;;;;;;;;;28.44;40.68;93923.63;4944072;28;7040;-57
2023/09/23 00:48:38;;;;;;;;;;;;;;;28.41;41.04;93921.94;4930239;29;7203;-57
2023/09/23 00:51:11;;;;;;;;;;;;;;;28.41;40.02;93916.41;4920664;29;7149;-57
2023/09/23 00:53:40;;;;;;;;;;;;;;;28.41;40.89;93918.44;4933911;28;7219;-57
2023/09/23 00:56:09;;;;;;;;;;;;;;;28.39;40.64;93918.97;5006022;28;7017;-56
2023/09/23 00:58:40;;;;;;;;;;;;;;;28.38;41.11;93918.22;5009722;28;7259;-56
2023/09/23 01:01:08;;;;;;;;;;;;;;;28.40;40.66;93908.66;5000189;28;7376;-57
2023/09/23 01:03:38;;;;;;;;;;;;;;;28.39;40.23;93913.44;5016153;28;7066;-56
2023/09/23 01:06:15;;;;;;;;;;;;;;;28.40;40.71;93916.97;5014086;28;7287;-56
2023/09/23 01:08:45;;;;;;;;;;;;;;;28.36;40.46;93909.72;4998525;28;8839;-57
2023/09/23 01:11:16;;;;;;;;;;;;;;;28.37;40.50;93921.56;4985074;28;7054;-56
2023/09/23 01:13:44;;;;;;;;;;;;;;;28.35;41.15;93922.09;5008398;28;7239;-56
2023/09/23 01:16:12;;;;;;;;;;;;;;;28.36;40.79;93923.56;5010240;28;7230;-57
2023/09/23 01:18:45;;;;;;;;;;;;;;;28.34;40.65;93920.59;5010907;28;7528;-57
2023/09/23 01:21:12;;;;;;;;;;;;;;;28.36;40.71;93925.63;5007685;28;7566;-57
2023/09/23 01:23:46;;;;;;;;;;;;;;;28.38;41.02;93930.59;4998848;28;7164;-56
2023/09/23 01:26:12;;;;;;;;;;;;;;;28.37;40.78;93927.09;4992211;28;8000;-57
2023/09/23 01:28:40;;;;;;;;;;;;;;;28.38;40.76;93933.38;5007055;28;7603;-57
2023/09/23 01:31:07;;;;;;;;;;;;;;;28.34;40.85;93937.19;4996998;28;9155;-57
2023/09/23 01:33:38;;;;;;;;;;;;;;;28.34;40.93;93936.44;5003712;28;7850;-57
2023/09/23 01:36:05;;;;;;;;;;;;;;;28.35;40.88;93937.94;5007505;28;7144;-57
2023/09/23 01:38:35;;;;;;;;;;;;;;;28.33;41.01;93943.28;4988281;28;8703;-57
2023/09/23 01:41:10;;;;;;;;;;;;;;;28.33;40.65;93937.75;4982978;28;7230;-56
2023/09/23 01:43:38;;;;;;;;;;;;;;;28.33;40.88;93943.28;5013337;28;7310;-57
2023/09/23 01:46:04;;;;;;;;;;;;;;;28.33;40.44;93948.81;4996485;28;9447;-56
2023/09/23 01:48:34;;;;;;;;;;;;;;;28.32;40.88;93950.06;4984116;28;8765;-57
2023/09/23 01:51:02;;;;;;;;;;;;;;;28.32;40.37;93945.28;4992558;28;8775;-57
2023/09/23 01:53:32;;;;;;;;;;;;;;;28.32;40.41;93952.84;4995325;28;7164;-57
2023/09/23 01:55:59;;;;;;;;;;;;;;;28.31;41.04;93949.34;4981414;28;7274;-57
2023/09/23 01:58:25;;;;;;;;;;;;;;;28.30;40.54;93949.88;5012688;28;7453;-57
2023/09/23 02:00:54;;;;;;;;;;;;;;;28.29;40.54;93953.94;4999225;28;7236;-57
2023/09/23 02:03:23;;;;;;;;;;;;;;;28.32;40.99;93955.59;5000259;28;7329;-57
2023/09/23 02:05:51;;;;;;;;;;;;;;;28.29;40.74;93953.94;5003143;28;7240;-57
2023/09/23 02:08:17;;;;;;;;;;;;;;;28.30;40.66;93960.94;4994415;28;9079;-57
2023/09/23 02:10:45;;;;;;;;;;;;;;;28.28;40.90;93955.22;4995866;28;7074;-57
2023/09/23 02:13:20;;;;;;;;;;;;;;;28.31;41.28;93959.66;4999012;28;8227;-62
2023/09/23 02:16:04;;;;;;;;;;;;;;;28.29;40.40;93957.44;5016453;28;9065;-63
2023/09/23 02:18:45;;;;;;;;;;;;;;;28.27;40.32;93948.22;4996378;28;9106;-63
2023/09/23 02:21:27;;;;;;;;;;;;;;;28.26;40.61;93957.78;5013029;28;7273;-63
2023/09/23 02:23:59;;;;;;;;;;;;;;;28.26;40.30;93958.53;4994010;28;9199;-63
2023/09/23 02:26:27;;;;;;;;;;;;;;;28.28;40.76;93963.50;4997213;28;9039;-63
2023/09/23 02:28:53;;;;;;;;;;;;;;;28.27;40.93;93962.03;5000989;28;6987;-63
2023/09/23 02:31:21;;;;;;;;;;;;;;;28.25;40.34;93967.38;5023141;28;7054;-63
2023/09/23 02:33:58;;;;;;;;;;;;;;;28.26;40.06;93966.06;4994295;28;7029;-63
2023/09/23 02:36:38;;;;;;;;;;;;;;;28.23;40.65;93967.16;5009752;28;7276;-62
2023/09/23 02:39:24;;;;;;;;;;;;;;;28.24;40.49;93976.94;5018533;28;8856;-62
2023/09/23 02:42:05;;;;;;;;;;;;;;;28.21;40.81;93970.44;4998696;28;9147;-62
2023/09/23 02:44:50;;;;;;;;;;;;;;;28.18;40.79;93974.31;4994527;28;8242;-63
2023/09/23 02:47:16;;;;;;;;;;;;;;;28.16;40.90;93976.88;5004027;28;7640;-63
2023/09/23 02:49:44;;;;;;;;;;;;;;;28.16;40.74;93971.34;5008618;28;6994;-63
2023/09/23 02:52:10;;;;;;;;;;;;;;;28.16;40.79;93979.63;5007058;28;9446;-62
2023/09/23 02:54:37;;;;;;;;;;;;;;;28.14;40.60;93979.41;5001390;28;7509;-62
2023/09/23 02:57:08;;;;;;;;;;;;;;;28.14;40.88;93981.44;5017398;28;9280;-63
2023/09/23 02:59:41;;;;;;;;;;;;;;;28.13;40.68;93985.47;5008472;28;7450;-63
2023/09/23 03:02:10;;;;;;;;;;;;;;;28.11;40.88;93994.31;5010513;28;7073;-63
2023/09/23 03:04:36;;;;;;;;;;;;;;;28.10;40.64;93992.81;4993005;28;7072;-63
2023/09/23 03:07:02;;;;;;;;;;;;;;;28.10;41.08;93992.09;5011248;28;7506;-63
2023/09/23 03:09:32;;;;;;;;;;;;;;;28.10;40.88;93997.63;5012713;28;7344;-62
2023/09/23 03:12:00;;;;;;;;;;;;;;;28.09;41.23;94002.41;5004205;28;8743;-63
2023/09/23 03:14:42;;;;;;;;;;;;;;;28.07;41.08;93999.44;5009864;28;8794;-63
2023/09/23 03:17:12;;;;;;;;;;;;;;;28.05;40.82;93993.72;5000204;28;9325;-63
2023/09/23 03:19:41;;;;;;;;;;;;;;;28.07;41.15;94009.75;4996285;28;9523;-63
2023/09/23 03:22:08;;;;;;;;;;;;;;;28.06;40.33;93997.94;4997446;28;9113;-63
2023/09/23 03:24:34;;;;;;;;;;;;;;;28.06;41.11;93997.19;5015359;28;9267;-65
2023/09/23 03:27:01;;;;;;;;;;;;;;;28.03;41.20;94001.78;5001093;28;7366;-64
2023/09/23 03:29:28;;;;;;;;;;;;;;;28.05;40.98;94001.25;4994829;28;7235;-65
2023/09/23 03:31:59;;;;;;;;;;;;;;;28.05;40.90;94009.53;5013406;28;7044;-64
2023/09/23 03:34:26;;;;;;;;;;;;;;;28.05;41.09;94012.31;5009752;28;7406;-64
2023/09/23 03:36:54;;;;;;;;;;;;;;;28.04;40.99;94008.03;5017273;28;7313;-64
2023/09/23 03:39:41;;;;;;;;;;;;;;;28.05;41.34;94010.28;5008184;28;7216;-64
2023/09/23 03:42:36;;;;;;;;;;;;;;;28.03;41.07;94015.63;4993539;28;9455;-64
2023/09/23 03:45:10;;;;;;;;;;;;;;;28.03;41.14;94020.41;4998193;28;8929;-64
2023/09/23 03:47:44;;;;;;;;;;;;;;;28.04;41.03;94027.41;4993980;28;6997;-64
2023/09/23 03:50:10;;;;;;;;;;;;;;;28.03;40.93;94017.63;5007981;28;7236;-64
2023/09/23 03:52:36;;;;;;;;;;;;;;;28.02;41.10;94018.91;5010920;28;9245;-64
2023/09/23 03:55:06;;;;;;;;;;;;;;;28.03;41.13;94025.94;5017263;28;7683;-64
2023/09/23 03:57:38;;;;;;;;;;;;;;;28.02;40.80;94027.19;5005554;28;7397;-64
2023/09/23 04:00:14;;;;;;;;;;;;;;;28.03;41.21;94031.47;4992386;28;9012;-65
2023/09/23 04:02:55;;;;;;;;;;;;;;;28.05;40.66;94031.66;5008378;28;8496;-65
2023/09/23 04:05:35;;;;;;;;;;;;;;;28.04;40.60;94033.69;4994136;28;7100;-65
2023/09/23 04:08:17;;;;;;;;;;;;;;;28.04;40.84;94032.94;5009467;28;7419;-64
2023/09/23 04:10:53;;;;;;;;;;;;;;;28.04;40.50;94041.22;4985111;28;7141;-64
2023/09/23 04:13:20;;;;;;;;;;;;;;;28.02;41.17;94047.28;4995958;28;9313;-64
2023/09/23 04:16:06;;;;;;;;;;;;;;;28.01;40.67;94043.06;5009410;28;7154;-64
2023/09/23 04:18:32;;;;;;;;;;;;;;;28.01;40.52;94045.06;4988199;28;7010;-64
2023/09/23 04:21:49;;;;;;;;;;;;;;;28.00;41.29;94044.31;4997647;28;9017;-65
2023/09/23 04:24:15;;;;;;;;;;;;;;;28.00;40.58;94054.63;5007678;28;7119;-65
2023/09/23 04:26:56;;;;;;;;;;;;;;;27.99;40.85;94053.88;4995395;28;7001;-64
2023/09/23 04:29:32;;;;;;;;;;;;;;;27.99;40.72;94053.16;4980747;28;6995;-64
2023/09/23 04:32:00;;;;;;;;;;;;;;;27.97;40.79;94050.16;4987451;28;8779;-64
2023/09/23 04:34:26;;;;;;;;;;;;;;;27.97;40.96;94056.44;4995123;28;7407;-64
2023/09/23 04:36:53;;;;;;;;;;;;;;;27.97;40.79;94056.44;5010640;28;7172;-64
2023/09/23 04:39:28;;;;;;;;;;;;;;;27.99;41.11;94061.47;5011026;28;7254;-64
2023/09/23 04:42:11;;;;;;;;;;;;;;;27.98;41.25;94055.19;5015250;28;8938;-64
2023/09/23 04:44:41;;;;;;;;;;;;;;;27.99;40.58;94059.41;5012681;28;7142;-64
2023/09/23 04:47:07;;;;;;;;;;;;;;;27.98;40.67;94062.72;5009083;28;7199;-64
2023/09/23 04:49:34;;;;;;;;;;;;;;;27.97;40.81;94064.75;5012770;28;7326;-64
2023/09/23 04:52:07;;;;;;;;;;;;;;;28.02;40.37;94069.41;4999452;28;9370;-64
2023/09/23 04:54:59;;;;;;;;;;;;;;;28.02;40.76;94066.66;5017191;28;7803;-64
2023/09/23 04:57:26;;;;;;;;;;;;;;;28.02;40.51;94066.66;4987238;28;6976;-64
2023/09/23 04:59:54;;;;;;;;;;;;;;;28.02;40.99;94069.41;4976745;28;7274;-64
2023/09/23 05:02:23;;;;;;;;;;;;;;;28.02;40.36;94072.19;4992793;28;8801;-64
2023/09/23 05:04:58;;;;;;;;;;;;;;;28.01;40.25;94076.25;4980071;28;9066;-64
2023/09/23 05:07:37;;;;;;;;;;;;;;;28.03;40.60;94084.00;4973818;28;7228;-64
2023/09/23 05:10:39;;;;;;;;;;;;;;;28.02;40.74;94091.53;4984928;28;7175;-64
2023/09/23 05:13:19;;;;;;;;;;;;;;;28.01;41.06;94092.81;4896817;29;7138;-64
2023/09/23 05:15:56;;;;;;;;;;;;;;;28.01;40.13;94090.06;4878022;29;7251;-64
2023/09/23 05:18:23;;;;;;;;;;;;;;;27.99;40.77;94092.59;4899293;29;9177;-64
2023/09/23 05:20:57;;;;;;;;;;;;;;;27.99;40.42;94091.88;4895532;29;7255;-65
2023/09/23 05:23:33;;;;;;;;;;;;;;;28.00;40.71;94099.63;4891168;29;7843;-64
2023/09/23 05:26:11;;;;;;;;;;;;;;;27.99;40.73;94091.88;4892157;29;6859;-64
2023/09/23 05:28:46;;;;;;;;;;;;;;;28.00;40.91;94096.09;4894693;29;9652;-64
2023/09/23 05:31:25;;;;;;;;;;;;;;;28.00;40.53;94098.88;4894108;29;9377;-64
2023/09/23 05:34:02;;;;;;;;;;;;;;;27.98;40.58;94104.94;4887806;29;7221;-63
2023/09/23 05:36:38;;;;;;;;;;;;;;;27.96;40.48;94109.47;4905387;29;7400;-64
2023/09/23 05:39:05;;;;;;;;;;;;;;;27.99;40.94;94109.19;4900473;29;9087;-64
2023/09/23 05:41:34;;;;;;;;;;;;;;;27.99;40.99;94109.19;4912114;29;7112;-65
2023/09/23 05:44:09;;;;;;;;;;;;;;;27.98;40.47;94106.94;4913762;29;9407;-62
2023/09/23 05:46:45;;;;;;;;;;;;;;;27.97;40.54;94110.97;4908223;29;7039;-61
2023/09/23 05:49:12;;;;;;;;;;;;;;;27.96;40.28;94115.00;4979851;28;8463;-61
2023/09/23 05:51:39;;;;;;;;;;;;;;;27.95;40.03;94119.06;5007346;28;7275;-61
2023/09/23 05:54:11;;;;;;;;;;;;;;;27.98;40.09;94124.28;4998925;28;9300;-62
2023/09/23 05:56:51;;;;;;;;;;;;;;;27.99;40.14;94122.28;4993315;28;7225;-61
2023/09/23 05:59:25;;;;;;;;;;;;;;;27.94;40.36;94123.09;5010328;28;7366;-61
2023/09/23 06:01:57;;;;;;;;;;;;;;;27.97;40.26;94130.34;4971122;28;9076;-61
2023/09/23 06:04:24;;;;;;;;;;;;;;;27.95;40.57;94136.38;4992550;28;7522;-61
2023/09/23 06:06:55;;;;;;;;;;;;;;;27.95;40.50;94135.66;5009337;28;8747;-61
2023/09/23 06:09:23;;;;;;;;;;;;;;;27.96;39.98;94143.41;5007029;28;9522;-62
2023/09/23 06:11:49;;;;;;;;;;;;;;;27.98;40.13;94140.13;4991645;28;7296;-60
2023/09/23 06:14:28;;;;;;;;;;;;;;;27.99;39.89;94147.88;4991892;28;9131;-61
2023/09/23 06:16:58;;;;;;;;;;;;;;;27.99;40.57;94149.91;5005932;28;7516;-62
2023/09/23 06:19:33;;;;;;;;;;;;;;;27.99;39.98;94150.66;4990182;28;8842;-61
2023/09/23 06:22:29;;;;;;;;;;;;;;;28.00;40.44;94149.38;4994904;28;7089;-61
2023/09/23 06:24:55;;;;;;;;;;;;;;;27.97;40.13;94155.97;4911473;29;7204;-61
2023/09/23 06:27:21;;;;;;;;;;;;;;;27.99;40.30;94156.19;4908316;28;8900;-61
2023/09/23 06:29:51;;;;;;;;;;;;;;;27.97;40.42;94163.50;4916285;29;9282;-61
2023/09/23 06:32:19;;;;;;;;;;;;;;;27.95;40.72;94152.97;4914919;28;7305;-62
2023/09/23 06:34:45;;;;;;;;;;;;;;;27.97;39.81;94166.28;4915744;29;8792;-62
2023/09/23 06:37:26;;;;;;;;;;;;;;;27.94;40.03;94159.03;4919282;29;7343;-62
2023/09/23 06:40:04;;;;;;;;;;;;;;;27.96;40.23;94176.56;4919441;29;9063;-62
2023/09/23 06:42:38;;;;;;;;;;;;;;;27.93;40.43;94172.09;4914438;29;6983;-61
2023/09/23 06:45:09;;;;;;;;;;;;;;;27.92;40.28;94172.63;4929659;29;9039;-62
2023/09/23 06:47:37;;;;;;;;;;;;;;;27.92;40.31;94180.94;4931156;28;7622;-62
2023/09/23 06:50:13;;;;;;;;;;;;;;;27.92;40.25;94189.97;4921161;29;7180;-62
2023/09/23 06:52:57;;;;;;;;;;;;;;;27.91;40.36;94188.47;4919498;29;7853;-57
2023/09/23 06:55:25;;;;;;;;;;;;;;;27.91;39.86;94196.78;4907379;29;7532;-56
2023/09/23 06:58:04;;;;;;;;;;;;;;;27.91;40.22;94196.03;4910050;28;9175;-55
2023/09/23 07:04:02;;;;;;;;;;;;;;;27.87;40.45;94214.94;5002391;28;7013;-55
2023/09/23 07:06:38;;;;;;;;;;;;;;;27.86;41.10;94210.72;5000213;28;10026;-56
2023/09/23 07:09:05;;;;;;;;;;;;;;;27.84;40.65;94219.50;4988646;28;6990;-55
2023/09/23 07:11:42;;;;;;;;;;;;;;;27.83;41.21;94228.34;4997195;28;7078;-56
2023/09/23 07:14:08;;;;;;;;;;;;;;;27.80;41.26;94230.13;5006440;28;9255;-55
2023/09/23 07:16:39;;;;;;;;;;;;;;;27.82;40.93;94244.16;4991831;28;7156;-55
2023/09/23 07:19:05;;;;;;;;;;;;;;;27.84;41.22;94238.13;4989855;28;7233;-56
2023/09/23 07:21:34;;;;;;;;;;;;;;;27.84;41.23;94236.09;4989989;28;7083;-55
2023/09/23 07:24:03;;;;;;;;;;;;;;;27.86;40.97;94246.63;4989803;28;8900;-55
2023/09/23 07:26:29;;;;;;;;;;;;;;;27.85;41.43;94253.44;5007225;28;9779;-55
2023/09/23 07:28:55;;;;;;;;;;;;;;;27.86;41.00;94257.69;4999597;28;6987;-55
2023/09/23 07:31:22;;;;;;;;;;;;;;;27.86;41.19;94258.41;5000750;28;6995;-56
2023/09/23 07:33:59;;;;;;;;;;;;;;;27.87;41.17;94253.63;4990581;28;8817;-55
2023/09/23 07:36:27;;;;;;;;;;;;;;;27.85;41.32;94264.47;4991147;28;9047;-55
2023/09/23 07:38:53;;;;;;;;;;;;;;;27.83;41.22;94264.28;5013116;28;8742;-55
2023/09/23 07:41:26;;;;;;;;;;;;;;;27.81;41.18;94264.06;4992599;28;7222;-54
2023/09/23 07:43:57;;;;;;;;;;;;;;;27.82;41.06;94274.56;5008968;28;8440;-54
2023/09/23 07:46:23;;;;;;;;;;;;;;;27.84;40.87;94274.06;5012371;28;9470;-55
2023/09/23 07:48:49;;;;;;;;;;;;;;;27.90;40.93;94283.00;4991697;28;7291;-54
2023/09/23 07:51:16;;;;;;;;;;;;;;;27.90;40.75;94283.00;5011772;28;7268;-55
2023/09/23 07:53:43;;;;;;;;;;;;;;;27.88;41.00;94282.78;4995930;28;7352;-56
2023/09/23 07:56:18;;;;;;;;;;;;;;;27.86;40.85;94285.34;4994380;28;7016;-55
2023/09/23 07:58:44;;;;;;;;;;;;;;;27.88;40.93;94291.06;4991356;28;9163;-55
2023/09/23 08:01:20;;;;;;;;;;;;;;;27.89;41.21;94303.63;4992828;28;7431;-55
2023/09/23 08:04:01;;;;;;;;;;;;;;;27.88;41.00;94302.88;5009310;28;7241;-55
2023/09/23 08:06:27;;;;;;;;;;;;;;;27.87;40.96;94306.16;5003722;28;7024;-55
2023/09/23 08:09:02;;;;;;;;;;;;;;;27.87;40.64;94311.69;5009560;28;8760;-55
2023/09/23 08:11:29;;;;;;;;;;;;;;;27.86;41.01;94307.44;5013256;28;7004;-56
2023/09/23 08:13:56;;;;;;;;;;;;;;;27.87;41.30;94314.44;5014522;28;7268;-55
2023/09/23 08:16:24;;;;;;;;;;;;;;;27.87;41.37;94312.44;5007708;28;6903;-55
2023/09/23 08:18:51;;;;;;;;;;;;;;;27.87;41.61;94315.19;5005273;28;7068;-55
2023/09/23 08:21:28;;;;;;;;;;;;;;;27.84;41.38;94313.47;4996972;28;6979;-56
2023/09/23 08:24:09;;;;;;;;;;;;;;;27.86;41.27;94322.00;5012863;28;9040;-56
2023/09/23 08:26:36;;;;;;;;;;;;;;;27.85;40.98;94314.25;5008040;28;7174;-55
2023/09/23 08:29:37;;;;;;;;;;;;;;;27.83;41.50;94328.59;4989237;28;6997;-55
2023/09/23 08:32:12;;;;;;;;;;;;;;;27.82;41.30;94331.88;4984241;28;7249;-55
2023/09/23 08:34:38;;;;;;;;;;;;;;;27.83;41.21;94336.88;4975880;28;8813;-55
2023/09/23 08:37:28;;;;;;;;;;;;;;;27.82;41.41;94335.38;4978559;28;7157;-55
2023/09/23 08:40:33;;;;;;;;;;;;;;;27.83;41.28;94333.38;4980195;28;7302;-55
2023/09/23 08:43:08;;;;;;;;;;;;;;;27.80;41.80;94337.94;4934656;28;7258;-55
2023/09/23 08:45:47;;;;;;;;;;;;;;;27.80;41.29;94342.69;4927352;29;8922;-55
2023/09/23 08:48:31;;;;;;;;;;;;;;;27.79;41.71;94344.00;4928672;28;7117;-55
2023/09/23 08:51:11;;;;;;;;;;;;;;;27.79;41.72;94344.00;4931364;28;7066;-55
2023/09/23 08:53:59;;;;;;;;;;;;;;;27.77;42.05;94341.75;4934151;28;7282;-55
2023/09/23 08:56:26;;;;;;;;;;;;;;;27.77;41.52;94347.28;4921461;28;7051;-55
2023/09/23 08:58:54;;;;;;;;;;;;;;;27.77;41.42;94346.53;4930497;28;7237;-55
2023/09/23 09:01:24;;;;;;;;;;;;;;;27.78;41.74;94353.53;4921540;29;6981;-55
2023/09/23 09:03:53;;;;;;;;;;;;;;;27.82;41.65;94359.53;4912191;29;7143;-55
2023/09/23 09:06:29;;;;;;;;;;;;;;;27.83;41.19;94358.25;4926303;28;7255;-55
2023/09/23 09:08:55;;;;;;;;;;;;;;;27.80;41.20;94357.28;4899868;29;7666;-55
2023/09/23 09:11:23;;;;;;;;;;;;;;;27.83;41.72;94366.53;4896669;29;7169;-55
2023/09/23 09:14:00;;;;;;;;;;;;;;;27.85;41.59;94364.00;4898718;29;9094;-55
2023/09/23 09:16:35;;;;;;;;;;;;;;;27.82;41.49;94354.72;4907227;29;7264;-55
2023/09/23 09:19:19;;;;;;;;;;;;;;;27.83;41.09;94367.28;4982740;28;7000;-55
2023/09/23 09:21:49;;;;;;;;;;;;;;;27.82;41.49;94359.53;5012208;28;8155;-56
2023/09/23 09:24:16;;;;;;;;;;;;;;;27.85;41.36;94373.03;4989775;28;9106;-55
2023/09/23 09:26:45;;;;;;;;;;;;;;;27.83;41.13;94366.53;5005889;28;7510;-55
2023/09/23 09:29:13;;;;;;;;;;;;;;;27.86;41.19;94368.25;4996740;28;7181;-55
2023/09/23 09:32:11;;;;;;;;;;;;;;;27.89;41.55;94369.97;4994501;28;7074;-55
2023/09/23 09:34:47;;;;;;;;;;;;;;;27.87;41.45;94366.97;5003550;28;7102;-55
2023/09/23 09:37:23;;;;;;;;;;;;;;;27.87;40.93;94373.25;4992883;28;8532;-55
2023/09/23 09:40:05;;;;;;;;;;;;;;;27.86;41.32;94373.78;5000625;28;7304;-55
2023/09/23 09:42:41;;;;;;;;;;;;;;;27.85;41.30;94373.03;4973831;28;9036;-55
2023/09/23 09:45:42;;;;;;;;;;;;;;;27.86;41.30;94376.56;5009235;28;7094;-55
2023/09/23 09:48:19;;;;;;;;;;;;;;;27.88;40.93;94382.31;4913263;29;7806;-55
2023/09/23 09:50:55;;;;;;;;;;;;;;;27.86;41.16;94373.78;4912298;29;7999;-55
2023/09/23 09:53:39;;;;;;;;;;;;;;;27.84;41.31;94381.88;4910224;29;7240;-55
2023/09/23 09:56:07;;;;;;;;;;;;;;;27.84;41.01;94374.28;4909367;29;7447;-55
2023/09/23 09:58:41;;;;;;;;;;;;;;;27.88;40.68;94379.53;4913003;29;9609;-56
2023/09/23 10:01:26;;;;;;;;;;;;;;;27.88;41.11;94374.00;4904917;29;7291;-55
2023/09/23 10:03:56;;;;;;;;;;;;;;;27.88;41.11;94380.28;4916669;29;7552;-55
2023/09/23 10:07:09;;;;;;;;;;;;;;;27.89;40.82;94379.00;4913849;29;9044;-55
2023/09/23 10:09:38;;;;;;;;;;;;;;;27.89;40.62;94379.00;4852720;29;9143;-55
2023/09/23 10:12:13;;;;;;;;;;;;;;;27.85;40.77;94384.09;4850531;29;9644;-55
2023/09/23 10:14:58;;;;;;;;;;;;;;;27.88;40.78;94385.06;4848247;29;9458;-55
2023/09/23 10:17:32;;;;;;;;;;;;;;;27.86;41.34;94387.59;4861332;29;7281;-55
2023/09/23 10:20:15;;;;;;;;;;;;;;;27.87;42.01;94389.09;4864485;29;8742;-55
2023/09/23 10:22:52;;;;;;;;;;;;;;;27.88;41.58;94387.81;4850466;29;7414;-55
2023/09/23 10:25:46;;;;;;;;;;;;;;;27.88;41.53;94385.06;4911313;28;9089;-55
2023/09/23 10:28:24;;;;;;;;;;;;;;;27.86;41.57;94376.56;4924590;28;9228;-55
2023/09/23 10:31:06;;;;;;;;;;;;;;;27.89;41.77;94376.25;4951545;28;7564;-54
2023/09/23 10:33:35;;;;;;;;;;;;;;;27.88;41.64;94368.47;4915859;29;7238;-54
2023/09/23 10:36:20;;;;;;;;;;;;;;;27.89;41.67;94365.19;4931914;28;7067;-54
2023/09/23 10:38:57;;;;;;;;;;;;;;;27.87;41.55;94367.72;4937617;28;7179;-55
2023/09/23 10:41:42;;;;;;;;;;;;;;;27.87;41.81;94364.22;4941927;28;9458;-54
2023/09/23 10:44:08;;;;;;;;;;;;;;;27.85;41.96;94364.00;4916719;29;9057;-55
2023/09/23 10:46:36;;;;;;;;;;;;;;;27.84;42.14;94362.50;4981565;28;7081;-55
2023/09/23 10:49:05;;;;;;;;;;;;;;;27.87;42.15;94375.25;4996111;28;9109;-55
2023/09/23 10:51:33;;;;;;;;;;;;;;;27.89;42.31;94372.72;5008286;28;7530;-55
2023/09/23 10:54:00;;;;;;;;;;;;;;;27.90;42.08;94382.53;4993966;28;7496;-55
2023/09/23 10:56:36;;;;;;;;;;;;;;;27.91;42.10;94378.47;4995271;28;7274;-55
2023/09/23 10:59:35;;;;;;;;;;;;;;;27.90;42.23;94372.22;5001341;28;7142;-55
2023/09/23 11:02:22;;;;;;;;;;;;;;;27.89;42.30;94379.00;4990341;28;8833;-55
2023/09/23 11:04:49;;;;;;;;;;;;;;;27.91;42.29;94375.69;5013204;28;7413;-55
2023/09/23 11:07:24;;;;;;;;;;;;;;;27.89;42.18;94375.47;5006783;28;6988;-55
2023/09/23 11:09:57;;;;;;;;;;;;;;;27.90;42.40;94372.22;5008780;28;7684;-55
2023/09/23 11:12:27;;;;;;;;;;;;;;;27.90;42.02;94382.53;4991893;28;7247;-55
2023/09/23 11:14:56;;;;;;;;;;;;;;;27.90;41.76;94388.03;4986985;28;7227;-55
2023/09/23 11:17:27;;;;;;;;;;;;;;;27.87;41.69;94387.06;5008370;28;8783;-55
2023/09/23 11:20:01;;;;;;;;;;;;;;;27.85;41.93;94384.09;5005778;28;7321;-55
2023/09/23 11:22:30;;;;;;;;;;;;;;;27.88;42.02;94396.13;5006619;28;7270;-55
2023/09/23 11:24:58;;;;;;;;;;;;;;;27.88;41.95;94398.88;5012188;28;9147;-55
2023/09/23 11:27:32;;;;;;;;;;;;;;;27.86;42.04;94393.13;4995610;28;8737;-55
2023/09/23 11:30:29;;;;;;;;;;;;;;;27.89;42.00;94392.81;4992475;28;9172;-55
2023/09/23 11:32:56;;;;;;;;;;;;;;;27.92;41.75;94388.25;4968866;28;7508;-55
2023/09/23 11:35:37;;;;;;;;;;;;;;;27.87;41.94;94389.09;4950687;28;9350;-55
2023/09/23 11:38:03;;;;;;;;;;;;;;;27.85;41.67;94386.09;4958925;28;7577;-55
2023/09/23 11:40:34;;;;;;;;;;;;;;;27.92;41.93;94393.78;4964294;28;9228;-55
2023/09/23 11:43:03;;;;;;;;;;;;;;;27.92;41.08;94396.56;4948361;28;7462;-60
2023/09/23 11:45:30;;;;;;;;;;;;;;;27.92;41.12;94393.78;4965401;28;8861;-60
2023/09/23 11:48:15;;;;;;;;;;;;;;;27.94;41.64;94397.53;4967494;28;7040;-60
2023/09/23 11:50:43;;;;;;;;;;;;;;;27.95;41.29;94401.78;4953205;28;9038;-60
2023/09/23 11:53:13;;;;;;;;;;;;;;;27.92;41.27;94396.56;4961867;28;7147;-60
2023/09/23 11:55:42;;;;;;;;;;;;;;;27.95;41.36;94395.50;4953040;28;8005;-60
2023/09/23 11:58:25;;;;;;;;;;;;;;;27.92;41.20;94393.78;4951169;28;9470;-60
2023/09/23 12:00:54;;;;;;;;;;;;;;;27.90;40.78;94388.03;4947354;28;8839;-60
2023/09/23 12:03:30;;;;;;;;;;;;;;;27.92;40.89;94388.25;4958783;28;6988;-61
2023/09/23 12:06:05;;;;;;;;;;;;;;;27.91;41.23;94384.00;4960376;28;8941;-61
2023/09/23 12:08:37;;;;;;;;;;;;;;;27.91;41.47;94384.75;4970023;28;7338;-60
2023/09/23 12:11:39;;;;;;;;;;;;;;;27.91;40.86;94389.53;5009796;28;8869;-60
2023/09/23 12:14:15;;;;;;;;;;;;;;;27.90;40.81;94385.28;4953650;28;7274;-61
2023/09/23 12:16:50;;;;;;;;;;;;;;;27.92;41.47;94391.78;4940779;28;7150;-61
2023/09/23 12:19:33;;;;;;;;;;;;;;;27.94;41.14;94391.25;4933776;28;7000;-61
2023/09/23 12:22:12;;;;;;;;;;;;;;;27.93;40.61;94398.78;4939059;28;9402;-61
2023/09/23 12:25:17;;;;;;;;;;;;;;;27.94;40.74;94402.31;4937381;28;7252;-61
2023/09/23 12:28:10;;;;;;;;;;;;;;;27.95;40.86;94390.00;4929427;28;9355;-60
2023/09/23 12:30:38;;;;;;;;;;;;;;;27.97;40.34;94390.97;4940364;28;7271;-60
2023/09/23 12:33:05;;;;;;;;;;;;;;;27.97;41.07;94382.66;4927525;28;9464;-61
2023/09/23 12:35:33;;;;;;;;;;;;;;;27.98;40.50;94388.94;4944933;28;7452;-60
2023/09/23 12:38:11;;;;;;;;;;;;;;;27.98;40.38;94388.94;4951063;28;8867;-60
2023/09/23 12:40:39;;;;;;;;;;;;;;;28.01;40.82;94379.59;4936155;28;7087;-60
2023/09/23 12:43:06;;;;;;;;;;;;;;;28.00;40.76;94386.41;4949462;28;9085;-61
2023/09/23 12:45:43;;;;;;;;;;;;;;;28.03;40.99;94385.34;4937508;28;8808;-61
2023/09/23 12:48:29;;;;;;;;;;;;;;;28.04;41.00;94382.06;4982660;28;7160;-61
2023/09/23 12:50:57;;;;;;;;;;;;;;;28.02;41.31;94376.31;4998925;28;8720;-61
2023/09/23 12:53:29;;;;;;;;;;;;;;;28.05;41.23;94378.03;5012278;28;7405;-62
2023/09/23 12:55:57;;;;;;;;;;;;;;;28.08;40.86;94385.25;5012140;28;9062;-62
2023/09/23 12:58:50;;;;;;;;;;;;;;;28.10;41.31;94387.50;5016534;28;7587;-62
2023/09/23 13:01:21;;;;;;;;;;;;;;;28.13;40.87;94384.44;4964269;28;7323;-62
2023/09/23 13:03:47;;;;;;;;;;;;;;;28.12;41.14;94382.91;4972875;28;7259;-62
2023/09/23 13:06:20;;;;;;;;;;;;;;;28.16;41.07;94388.91;4963209;28;7168;-62
2023/09/23 13:08:47;;;;;;;;;;;;;;;28.15;40.91;94387.41;4970517;28;7271;-62
2023/09/23 13:11:51;;;;;;;;;;;;;;;28.14;41.20;94390.72;4973511;28;7259;-62
2023/09/23 13:14:29;;;;;;;;;;;;;;;28.18;41.23;94396.66;4902155;29;9115;-62
2023/09/23 13:16:58;;;;;;;;;;;;;;;28.17;40.90;94389.63;4895458;29;9119;-62
2023/09/23 13:19:41;;;;;;;;;;;;;;;28.15;40.79;94392.19;4906502;29;9119;-62
2023/09/23 13:22:08;;;;;;;;;;;;;;;28.15;41.02;94389.41;4914413;29;7160;-62
2023/09/23 13:24:34;;;;;;;;;;;;;;;28.20;41.37;94402.41;4906107;29;7276;-62
2023/09/23 13:27:18;;;;;;;;;;;;;;;28.20;40.83;94403.16;4901227;29;8697;-62
2023/09/23 13:29:44;;;;;;;;;;;;;;;28.19;41.28;94400.91;4911763;29;7219;-62
2023/09/23 13:32:31;;;;;;;;;;;;;;;28.19;40.92;94409.22;4898420;29;7233;-63
2023/09/23 13:35:17;;;;;;;;;;;;;;;28.18;41.53;94407.72;4900814;29;7236;-62
2023/09/23 13:37:56;;;;;;;;;;;;;;;28.18;41.22;94402.19;4923113;29;8509;-62